Heisdorf-sur-Alzette, Luxembourg
Current Conditions -  °F | °C
As of 5:20 PM on Wednesday 22 Oct 2014 (Local Time) from ELLX Reporting Station
Broken Clouds Broken Clouds  
Wind Chill: 43°   Ceiling: 5000
Heat Index: 48°   Visibility: 6mi
Dew Point: 41°   Wind: 12mph
Humidity: 76%   Direction: 290°WNW
Pressure: 30.12"   Gusts: NA
Location:  49.67°N, 6.14°E
Report Text: ELLX 221520Z 29010KT 260V340 9999 SCT021 BKN050 09/05 Q1020 NOSIG
Loading
Personal Weather Stations






























Interactive Weather Map
Tropical Storm Tracking
New forecast layout! Learn more

10-Day Weather Forecast

Advertisements
Track Severe Weather on mobile